sensor_id;sensor_type;location;lat;lon;timestamp;P1;durP1;ratioP1;P2;durP2;ratioP2
6928;SDS011;3504;52.616;13.238;2023-11-19T00:02:04;13.80;;;10.17;;
6928;SDS011;3504;52.616;13.238;2023-11-19T00:07:07;15.10;;;10.57;;
6928;SDS011;3504;52.616;13.238;2023-11-19T00:12:10;13.77;;;10.03;;
6928;SDS011;3504;52.616;13.238;2023-11-19T00:17:10;15.77;;;9.80;;
6928;SDS011;3504;52.616;13.238;2023-11-19T00:22:11;13.40;;;9.87;;
6928;SDS011;3504;52.616;13.238;2023-11-19T00:27:11;11.87;;;9.20;;
6928;SDS011;3504;52.616;13.238;2023-11-19T00:32:12;13.90;;;9.93;;
6928;SDS011;3504;52.616;13.238;2023-11-19T00:37:16;13.03;;;9.73;;
6928;SDS011;3504;52.616;13.238;2023-11-19T00:42:17;13.60;;;9.17;;
6928;SDS011;3504;52.616;13.238;2023-11-19T00:47:18;11.10;;;9.03;;
6928;SDS011;3504;52.616;13.238;2023-11-19T00:52:20;12.37;;;9.30;;
6928;SDS011;3504;52.616;13.238;2023-11-19T00:57:22;15.47;;;9.80;;
6928;SDS011;3504;52.616;13.238;2023-11-19T01:02:24;12.80;;;9.73;;
6928;SDS011;3504;52.616;13.238;2023-11-19T01:07:24;15.03;;;10.13;;
6928;SDS011;3504;52.616;13.238;2023-11-19T01:12:26;14.13;;;8.90;;
6928;SDS011;3504;52.616;13.238;2023-11-19T01:17:27;11.67;;;8.97;;
6928;SDS011;3504;52.616;13.238;2023-11-19T01:22:27;10.03;;;7.77;;
6928;SDS011;3504;52.616;13.238;2023-11-19T01:27:28;10.53;;;8.07;;
6928;SDS011;3504;52.616;13.238;2023-11-19T01:32:28;9.30;;;7.67;;
6928;SDS011;3504;52.616;13.238;2023-11-19T01:37:29;12.07;;;8.20;;
6928;SDS011;3504;52.616;13.238;2023-11-19T01:42:29;10.13;;;7.77;;
6928;SDS011;3504;52.616;13.238;2023-11-19T01:47:30;11.47;;;7.03;;
6928;SDS011;3504;52.616;13.238;2023-11-19T01:52:31;9.00;;;6.77;;
6928;SDS011;3504;52.616;13.238;2023-11-19T01:57:33;10.60;;;7.63;;
6928;SDS011;3504;52.616;13.238;2023-11-19T02:02:37;8.97;;;7.53;;
6928;SDS011;3504;52.616;13.238;2023-11-19T02:07:39;11.50;;;7.80;;
6928;SDS011;3504;52.616;13.238;2023-11-19T02:12:40;9.50;;;7.47;;
6928;SDS011;3504;52.616;13.238;2023-11-19T02:17:44;12.97;;;8.37;;
6928;SDS011;3504;52.616;13.238;2023-11-19T02:22:45;10.93;;;8.23;;
6928;SDS011;3504;52.616;13.238;2023-11-19T02:27:57;9.70;;;7.60;;
6928;SDS011;3504;52.616;13.238;2023-11-19T02:33:00;8.30;;;7.27;;
6928;SDS011;3504;52.616;13.238;2023-11-19T02:38:05;8.93;;;6.90;;
6928;SDS011;3504;52.616;13.238;2023-11-19T02:43:07;11.17;;;7.03;;
6928;SDS011;3504;52.616;13.238;2023-11-19T02:48:08;11.27;;;7.53;;
6928;SDS011;3504;52.616;13.238;2023-11-19T02:53:09;9.43;;;7.07;;
6928;SDS011;3504;52.616;13.238;2023-11-19T02:58:10;9.83;;;6.97;;
6928;SDS011;3504;52.616;13.238;2023-11-19T03:03:20;7.80;;;6.77;;
6928;SDS011;3504;52.616;13.238;2023-11-19T03:08:22;7.47;;;6.37;;
6928;SDS011;3504;52.616;13.238;2023-11-19T03:13:23;7.07;;;6.10;;
6928;SDS011;3504;52.616;13.238;2023-11-19T03:18:23;9.77;;;7.07;;
6928;SDS011;3504;52.616;13.238;2023-11-19T03:23:24;10.93;;;6.97;;
6928;SDS011;3504;52.616;13.238;2023-11-19T03:28:28;9.77;;;7.13;;
6928;SDS011;3504;52.616;13.238;2023-11-19T03:33:28;9.40;;;7.20;;
6928;SDS011;3504;52.616;13.238;2023-11-19T03:38:29;10.37;;;8.20;;
6928;SDS011;3504;52.616;13.238;2023-11-19T03:43:30;11.10;;;7.53;;
6928;SDS011;3504;52.616;13.238;2023-11-19T03:48:31;10.40;;;8.73;;
6928;SDS011;3504;52.616;13.238;2023-11-19T03:53:32;11.83;;;8.20;;
6928;SDS011;3504;52.616;13.238;2023-11-19T03:58:32;10.87;;;7.90;;
6928;SDS011;3504;52.616;13.238;2023-11-19T04:03:33;10.80;;;7.57;;
6928;SDS011;3504;52.616;13.238;2023-11-19T04:08:34;11.30;;;8.10;;
6928;SDS011;3504;52.616;13.238;2023-11-19T04:13:36;11.53;;;8.10;;
6928;SDS011;3504;52.616;13.238;2023-11-19T04:18:36;12.40;;;8.50;;
6928;SDS011;3504;52.616;13.238;2023-11-19T04:23:37;10.27;;;8.03;;
6928;SDS011;3504;52.616;13.238;2023-11-19T04:28:37;14.50;;;8.63;;
6928;SDS011;3504;52.616;13.238;2023-11-19T04:33:38;12.53;;;8.80;;
6928;SDS011;3504;52.616;13.238;2023-11-19T04:38:38;12.17;;;9.00;;
6928;SDS011;3504;52.616;13.238;2023-11-19T04:43:39;15.47;;;9.80;;
6928;SDS011;3504;52.616;13.238;2023-11-19T04:48:40;13.97;;;9.40;;
6928;SDS011;3504;52.616;13.238;2023-11-19T04:53:40;14.80;;;9.77;;
6928;SDS011;3504;52.616;13.238;2023-11-19T04:58:41;13.73;;;9.40;;
6928;SDS011;3504;52.616;13.238;2023-11-19T05:03:41;14.83;;;9.57;;
6928;SDS011;3504;52.616;13.238;2023-11-19T05:08:42;13.33;;;9.67;;
6928;SDS011;3504;52.616;13.238;2023-11-19T05:13:44;13.20;;;8.77;;
6928;SDS011;3504;52.616;13.238;2023-11-19T05:18:45;13.27;;;9.60;;
6928;SDS011;3504;52.616;13.238;2023-11-19T05:23:46;11.93;;;8.60;;
6928;SDS011;3504;52.616;13.238;2023-11-19T05:28:47;10.73;;;7.97;;
6928;SDS011;3504;52.616;13.238;2023-11-19T05:33:47;11.37;;;7.87;;
6928;SDS011;3504;52.616;13.238;2023-11-19T05:38:48;12.00;;;8.20;;
6928;SDS011;3504;52.616;13.238;2023-11-19T05:43:49;12.20;;;7.57;;
6928;SDS011;3504;52.616;13.238;2023-11-19T05:48:49;18.30;;;7.47;;
6928;SDS011;3504;52.616;13.238;2023-11-19T05:53:50;9.30;;;6.90;;
6928;SDS011;3504;52.616;13.238;2023-11-19T05:58:51;10.77;;;7.60;;
6928;SDS011;3504;52.616;13.238;2023-11-19T06:03:51;9.87;;;7.43;;
6928;SDS011;3504;52.616;13.238;2023-11-19T06:08:52;9.43;;;7.27;;
6928;SDS011;3504;52.616;13.238;2023-11-19T06:13:52;9.37;;;7.57;;
6928;SDS011;3504;52.616;13.238;2023-11-19T06:18:53;9.23;;;7.17;;
6928;SDS011;3504;52.616;13.238;2023-11-19T06:23:53;10.43;;;7.67;;
6928;SDS011;3504;52.616;13.238;2023-11-19T06:28:54;9.80;;;7.17;;
6928;SDS011;3504;52.616;13.238;2023-11-19T06:33:55;9.13;;;7.03;;
6928;SDS011;3504;52.616;13.238;2023-11-19T06:38:58;9.90;;;6.73;;
6928;SDS011;3504;52.616;13.238;2023-11-19T06:43:59;9.23;;;7.13;;
6928;SDS011;3504;52.616;13.238;2023-11-19T06:48:59;11.10;;;6.93;;
6928;SDS011;3504;52.616;13.238;2023-11-19T06:54:00;7.93;;;6.30;;
6928;SDS011;3504;52.616;13.238;2023-11-19T06:59:00;8.63;;;6.70;;
6928;SDS011;3504;52.616;13.238;2023-11-19T07:04:01;11.67;;;7.13;;
6928;SDS011;3504;52.616;13.238;2023-11-19T07:09:08;8.67;;;6.73;;
6928;SDS011;3504;52.616;13.238;2023-11-19T07:14:12;9.77;;;7.07;;
6928;SDS011;3504;52.616;13.238;2023-11-19T07:19:12;9.53;;;7.00;;
6928;SDS011;3504;52.616;13.238;2023-11-19T07:24:13;10.47;;;7.37;;
6928;SDS011;3504;52.616;13.238;2023-11-19T07:29:14;10.23;;;6.77;;
6928;SDS011;3504;52.616;13.238;2023-11-19T07:34:17;8.93;;;6.87;;
6928;SDS011;3504;52.616;13.238;2023-11-19T07:39:17;9.67;;;7.30;;
6928;SDS011;3504;52.616;13.238;2023-11-19T07:44:19;8.87;;;7.13;;
6928;SDS011;3504;52.616;13.238;2023-11-19T07:49:21;8.57;;;6.97;;
6928;SDS011;3504;52.616;13.238;2023-11-19T07:54:21;9.07;;;7.63;;
6928;SDS011;3504;52.616;13.238;2023-11-19T07:59:22;11.37;;;8.33;;
6928;SDS011;3504;52.616;13.238;2023-11-19T08:04:22;9.33;;;7.57;;
6928;SDS011;3504;52.616;13.238;2023-11-19T08:09:23;10.63;;;8.00;;
6928;SDS011;3504;52.616;13.238;2023-11-19T08:14:23;9.73;;;7.80;;
6928;SDS011;3504;52.616;13.238;2023-11-19T08:19:24;10.43;;;8.17;;
6928;SDS011;3504;52.616;13.238;2023-11-19T08:24:24;9.73;;;8.47;;
6928;SDS011;3504;52.616;13.238;2023-11-19T08:29:25;12.97;;;8.70;;
6928;SDS011;3504;52.616;13.238;2023-11-19T08:34:27;13.77;;;9.87;;
6928;SDS011;3504;52.616;13.238;2023-11-19T08:39:27;11.53;;;9.00;;
6928;SDS011;3504;52.616;13.238;2023-11-19T08:44:28;11.83;;;9.00;;
6928;SDS011;3504;52.616;13.238;2023-11-19T08:49:28;12.03;;;9.63;;
6928;SDS011;3504;52.616;13.238;2023-11-19T08:54:29;11.80;;;9.13;;
6928;SDS011;3504;52.616;13.238;2023-11-19T08:59:29;9.97;;;7.43;;
6928;SDS011;3504;52.616;13.238;2023-11-19T09:04:30;9.73;;;7.40;;
6928;SDS011;3504;52.616;13.238;2023-11-19T09:09:31;8.57;;;6.70;;
6928;SDS011;3504;52.616;13.238;2023-11-19T09:14:35;10.77;;;8.67;;
6928;SDS011;3504;52.616;13.238;2023-11-19T09:19:36;10.53;;;7.53;;
6928;SDS011;3504;52.616;13.238;2023-11-19T09:24:36;9.00;;;7.37;;
6928;SDS011;3504;52.616;13.238;2023-11-19T09:29:37;8.27;;;7.30;;
6928;SDS011;3504;52.616;13.238;2023-11-19T09:34:38;8.80;;;7.00;;
6928;SDS011;3504;52.616;13.238;2023-11-19T09:39:38;9.33;;;6.77;;
6928;SDS011;3504;52.616;13.238;2023-11-19T09:44:39;8.07;;;6.33;;
6928;SDS011;3504;52.616;13.238;2023-11-19T09:49:41;7.00;;;6.30;;
6928;SDS011;3504;52.616;13.238;2023-11-19T09:54:42;8.03;;;5.40;;
6928;SDS011;3504;52.616;13.238;2023-11-19T09:59:43;6.07;;;5.47;;
6928;SDS011;3504;52.616;13.238;2023-11-19T10:04:45;8.53;;;5.10;;
6928;SDS011;3504;52.616;13.238;2023-11-19T10:09:48;8.07;;;5.87;;
6928;SDS011;3504;52.616;13.238;2023-11-19T10:14:48;7.37;;;5.43;;
6928;SDS011;3504;52.616;13.238;2023-11-19T10:19:51;6.33;;;4.83;;
6928;SDS011;3504;52.616;13.238;2023-11-19T10:24:52;6.23;;;4.57;;
6928;SDS011;3504;52.616;13.238;2023-11-19T10:29:52;5.60;;;4.20;;
6928;SDS011;3504;52.616;13.238;2023-11-19T10:35:04;6.90;;;4.63;;
6928;SDS011;3504;52.616;13.238;2023-11-19T10:40:06;7.10;;;4.60;;
6928;SDS011;3504;52.616;13.238;2023-11-19T10:45:22;8.20;;;5.00;;
6928;SDS011;3504;52.616;13.238;2023-11-19T10:50:26;9.87;;;4.63;;
6928;SDS011;3504;52.616;13.238;2023-11-19T10:55:28;8.50;;;5.03;;
6928;SDS011;3504;52.616;13.238;2023-11-19T11:00:43;14.43;;;5.40;;
6928;SDS011;3504;52.616;13.238;2023-11-19T11:06:02;13.40;;;4.87;;
6928;SDS011;3504;52.616;13.238;2023-11-19T11:11:04;17.50;;;4.83;;
6928;SDS011;3504;52.616;13.238;2023-11-19T11:16:06;14.67;;;5.20;;
6928;SDS011;3504;52.616;13.238;2023-11-19T11:21:09;18.57;;;7.60;;
6928;SDS011;3504;52.616;13.238;2023-11-19T11:26:32;13.07;;;5.63;;
6928;SDS011;3504;52.616;13.238;2023-11-19T11:37:32;15.47;;;5.20;;
6928;SDS011;3504;52.616;13.238;2023-11-19T11:42:37;14.77;;;5.97;;
6928;SDS011;3504;52.616;13.238;2023-11-19T11:58:02;22.93;;;6.80;;
6928;SDS011;3504;52.616;13.238;2023-11-19T12:03:05;13.50;;;5.77;;
6928;SDS011;3504;52.616;13.238;2023-11-19T12:08:07;19.17;;;6.17;;
6928;SDS011;3504;52.616;13.238;2023-11-19T12:13:10;21.47;;;8.20;;
6928;SDS011;3504;52.616;13.238;2023-11-19T12:18:12;20.47;;;6.30;;
6928;SDS011;3504;52.616;13.238;2023-11-19T12:23:19;17.37;;;7.00;;
6928;SDS011;3504;52.616;13.238;2023-11-19T12:28:20;24.27;;;7.40;;
6928;SDS011;3504;52.616;13.238;2023-11-19T12:33:20;27.07;;;7.93;;
6928;SDS011;3504;52.616;13.238;2023-11-19T12:38:24;23.03;;;7.77;;
6928;SDS011;3504;52.616;13.238;2023-11-19T12:43:26;25.97;;;6.37;;
6928;SDS011;3504;52.616;13.238;2023-11-19T12:48:27;18.63;;;6.90;;
6928;SDS011;3504;52.616;13.238;2023-11-19T12:53:27;21.20;;;7.10;;
6928;SDS011;3504;52.616;13.238;2023-11-19T12:58:29;20.83;;;6.90;;
6928;SDS011;3504;52.616;13.238;2023-11-19T13:03:35;17.77;;;6.47;;
6928;SDS011;3504;52.616;13.238;2023-11-19T13:08:39;19.93;;;6.07;;
6928;SDS011;3504;52.616;13.238;2023-11-19T13:13:59;22.67;;;6.63;;
6928;SDS011;3504;52.616;13.238;2023-11-19T13:19:04;17.20;;;5.63;;
6928;SDS011;3504;52.616;13.238;2023-11-19T13:24:05;24.73;;;6.27;;
6928;SDS011;3504;52.616;13.238;2023-11-19T13:29:06;24.50;;;6.07;;
6928;SDS011;3504;52.616;13.238;2023-11-19T13:34:07;19.93;;;6.13;;
6928;SDS011;3504;52.616;13.238;2023-11-19T13:39:08;23.37;;;6.10;;
6928;SDS011;3504;52.616;13.238;2023-11-19T13:44:08;20.70;;;6.33;;
6928;SDS011;3504;52.616;13.238;2023-11-19T13:49:09;23.63;;;6.03;;
6928;SDS011;3504;52.616;13.238;2023-11-19T13:54:10;15.70;;;5.83;;
6928;SDS011;3504;52.616;13.238;2023-11-19T13:59:10;22.83;;;6.40;;
6928;SDS011;3504;52.616;13.238;2023-11-19T14:04:11;25.03;;;6.37;;
6928;SDS011;3504;52.616;13.238;2023-11-19T14:09:13;20.90;;;6.70;;
6928;SDS011;3504;52.616;13.238;2023-11-19T14:14:15;21.27;;;6.60;;
6928;SDS011;3504;52.616;13.238;2023-11-19T14:19:16;25.43;;;7.87;;
6928;SDS011;3504;52.616;13.238;2023-11-19T14:24:16;29.40;;;7.33;;
6928;SDS011;3504;52.616;13.238;2023-11-19T14:29:17;29.53;;;8.07;;
6928;SDS011;3504;52.616;13.238;2023-11-19T14:34:17;29.43;;;7.87;;
6928;SDS011;3504;52.616;13.238;2023-11-19T14:39:19;27.23;;;8.10;;
6928;SDS011;3504;52.616;13.238;2023-11-19T14:44:20;30.77;;;7.90;;
6928;SDS011;3504;52.616;13.238;2023-11-19T14:49:20;25.33;;;7.53;;
6928;SDS011;3504;52.616;13.238;2023-11-19T14:54:21;30.33;;;7.90;;
6928;SDS011;3504;52.616;13.238;2023-11-19T14:59:22;27.90;;;8.37;;
6928;SDS011;3504;52.616;13.238;2023-11-19T15:04:22;24.10;;;7.27;;
6928;SDS011;3504;52.616;13.238;2023-11-19T15:09:23;27.47;;;8.63;;
6928;SDS011;3504;52.616;13.238;2023-11-19T15:14:23;39.23;;;9.83;;
6928;SDS011;3504;52.616;13.238;2023-11-19T15:19:24;32.57;;;9.17;;
6928;SDS011;3504;52.616;13.238;2023-11-19T15:24:24;25.80;;;7.60;;
6928;SDS011;3504;52.616;13.238;2023-11-19T15:29:25;30.63;;;7.90;;
6928;SDS011;3504;52.616;13.238;2023-11-19T15:34:26;30.00;;;9.40;;
6928;SDS011;3504;52.616;13.238;2023-11-19T15:39:26;30.03;;;9.90;;
6928;SDS011;3504;52.616;13.238;2023-11-19T15:44:29;29.37;;;8.50;;
6928;SDS011;3504;52.616;13.238;2023-11-19T15:49:29;30.03;;;7.13;;
6928;SDS011;3504;52.616;13.238;2023-11-19T15:54:30;32.80;;;7.30;;
6928;SDS011;3504;52.616;13.238;2023-11-19T15:59:30;24.47;;;7.33;;
6928;SDS011;3504;52.616;13.238;2023-11-19T16:04:31;30.93;;;8.50;;
6928;SDS011;3504;52.616;13.238;2023-11-19T16:09:32;25.50;;;9.63;;
6928;SDS011;3504;52.616;13.238;2023-11-19T16:14:32;28.60;;;7.43;;
6928;SDS011;3504;52.616;13.238;2023-11-19T16:19:33;31.13;;;7.33;;
6928;SDS011;3504;52.616;13.238;2023-11-19T16:24:38;27.53;;;8.00;;
6928;SDS011;3504;52.616;13.238;2023-11-19T16:29:38;35.63;;;9.10;;
6928;SDS011;3504;52.616;13.238;2023-11-19T16:34:39;30.93;;;8.67;;
6928;SDS011;3504;52.616;13.238;2023-11-19T16:39:42;29.00;;;8.37;;
6928;SDS011;3504;52.616;13.238;2023-11-19T16:44:43;27.90;;;9.03;;
6928;SDS011;3504;52.616;13.238;2023-11-19T16:49:44;32.97;;;8.83;;
6928;SDS011;3504;52.616;13.238;2023-11-19T16:54:45;27.40;;;9.47;;
6928;SDS011;3504;52.616;13.238;2023-11-19T16:59:45;29.07;;;8.50;;
6928;SDS011;3504;52.616;13.238;2023-11-19T17:04:48;26.33;;;8.33;;
6928;SDS011;3504;52.616;13.238;2023-11-19T17:09:48;23.97;;;8.43;;
6928;SDS011;3504;52.616;13.238;2023-11-19T17:14:49;29.47;;;7.60;;
6928;SDS011;3504;52.616;13.238;2023-11-19T17:19:50;32.23;;;8.83;;
6928;SDS011;3504;52.616;13.238;2023-11-19T17:24:50;32.93;;;7.37;;
6928;SDS011;3504;52.616;13.238;2023-11-19T17:29:51;35.33;;;9.57;;
6928;SDS011;3504;52.616;13.238;2023-11-19T17:34:51;31.47;;;8.93;;
6928;SDS011;3504;52.616;13.238;2023-11-19T17:39:53;32.17;;;9.70;;
6928;SDS011;3504;52.616;13.238;2023-11-19T17:44:53;38.90;;;10.33;;
6928;SDS011;3504;52.616;13.238;2023-11-19T17:49:58;38.50;;;9.63;;
6928;SDS011;3504;52.616;13.238;2023-11-19T17:54:59;23.57;;;7.20;;
6928;SDS011;3504;52.616;13.238;2023-11-19T17:59:59;18.60;;;7.50;;
6928;SDS011;3504;52.616;13.238;2023-11-19T18:05:12;21.90;;;7.30;;
6928;SDS011;3504;52.616;13.238;2023-11-19T18:10:12;20.00;;;6.40;;
6928;SDS011;3504;52.616;13.238;2023-11-19T18:15:13;21.10;;;6.50;;
6928;SDS011;3504;52.616;13.238;2023-11-19T18:20:14;14.77;;;4.87;;
6928;SDS011;3504;52.616;13.238;2023-11-19T18:25:15;17.67;;;6.53;;
6928;SDS011;3504;52.616;13.238;2023-11-19T18:30:17;22.40;;;5.80;;
6928;SDS011;3504;52.616;13.238;2023-11-19T18:35:18;14.27;;;5.47;;
6928;SDS011;3504;52.616;13.238;2023-11-19T18:40:23;17.47;;;6.47;;
6928;SDS011;3504;52.616;13.238;2023-11-19T18:45:24;15.63;;;6.13;;
6928;SDS011;3504;52.616;13.238;2023-11-19T18:50:25;19.23;;;6.00;;
6928;SDS011;3504;52.616;13.238;2023-11-19T18:55:26;14.53;;;6.60;;
6928;SDS011;3504;52.616;13.238;2023-11-19T19:00:27;14.73;;;5.80;;
6928;SDS011;3504;52.616;13.238;2023-11-19T19:05:28;14.93;;;6.03;;
6928;SDS011;3504;52.616;13.238;2023-11-19T19:10:28;19.27;;;6.27;;
6928;SDS011;3504;52.616;13.238;2023-11-19T19:15:29;22.87;;;7.03;;
6928;SDS011;3504;52.616;13.238;2023-11-19T19:20:30;20.67;;;6.63;;
6928;SDS011;3504;52.616;13.238;2023-11-19T19:25:30;18.40;;;6.73;;
6928;SDS011;3504;52.616;13.238;2023-11-19T19:30:31;16.40;;;7.13;;
6928;SDS011;3504;52.616;13.238;2023-11-19T19:35:33;23.87;;;8.03;;
6928;SDS011;3504;52.616;13.238;2023-11-19T19:40:34;24.87;;;8.43;;
6928;SDS011;3504;52.616;13.238;2023-11-19T19:45:35;18.20;;;7.33;;
6928;SDS011;3504;52.616;13.238;2023-11-19T19:50:35;23.30;;;8.03;;
6928;SDS011;3504;52.616;13.238;2023-11-19T19:55:36;20.87;;;7.60;;
6928;SDS011;3504;52.616;13.238;2023-11-19T20:00:36;23.47;;;7.73;;
6928;SDS011;3504;52.616;13.238;2023-11-19T20:05:37;24.70;;;8.10;;
6928;SDS011;3504;52.616;13.238;2023-11-19T20:10:37;27.27;;;8.77;;
6928;SDS011;3504;52.616;13.238;2023-11-19T20:15:38;24.93;;;8.80;;
6928;SDS011;3504;52.616;13.238;2023-11-19T20:20:38;26.47;;;8.80;;
6928;SDS011;3504;52.616;13.238;2023-11-19T20:25:40;21.30;;;8.57;;
6928;SDS011;3504;52.616;13.238;2023-11-19T20:30:42;18.87;;;8.53;;
6928;SDS011;3504;52.616;13.238;2023-11-19T20:35:42;30.03;;;8.60;;
6928;SDS011;3504;52.616;13.238;2023-11-19T20:40:43;22.83;;;7.60;;
6928;SDS011;3504;52.616;13.238;2023-11-19T20:45:43;20.73;;;7.80;;
6928;SDS011;3504;52.616;13.238;2023-11-19T20:50:44;25.07;;;8.03;;
6928;SDS011;3504;52.616;13.238;2023-11-19T20:55:44;25.80;;;8.23;;
6928;SDS011;3504;52.616;13.238;2023-11-19T21:00:45;26.73;;;9.13;;
6928;SDS011;3504;52.616;13.238;2023-11-19T21:05:46;28.07;;;8.43;;
6928;SDS011;3504;52.616;13.238;2023-11-19T21:10:54;23.10;;;8.03;;
6928;SDS011;3504;52.616;13.238;2023-11-19T21:15:54;21.00;;;6.87;;
6928;SDS011;3504;52.616;13.238;2023-11-19T21:20:55;24.47;;;8.30;;
6928;SDS011;3504;52.616;13.238;2023-11-19T21:25:58;23.00;;;7.17;;
6928;SDS011;3504;52.616;13.238;2023-11-19T21:31:00;24.60;;;8.07;;
6928;SDS011;3504;52.616;13.238;2023-11-19T21:36:00;28.17;;;7.77;;
6928;SDS011;3504;52.616;13.238;2023-11-19T21:41:01;22.67;;;6.97;;
6928;SDS011;3504;52.616;13.238;2023-11-19T21:46:01;29.10;;;7.53;;
6928;SDS011;3504;52.616;13.238;2023-11-19T21:51:03;22.43;;;7.57;;
6928;SDS011;3504;52.616;13.238;2023-11-19T21:56:04;16.97;;;7.00;;
6928;SDS011;3504;52.616;13.238;2023-11-19T22:01:06;24.07;;;7.27;;
6928;SDS011;3504;52.616;13.238;2023-11-19T22:06:07;17.40;;;6.57;;
6928;SDS011;3504;52.616;13.238;2023-11-19T22:11:07;18.50;;;7.27;;
6928;SDS011;3504;52.616;13.238;2023-11-19T22:16:11;19.47;;;6.53;;
6928;SDS011;3504;52.616;13.238;2023-11-19T22:21:11;24.13;;;7.07;;
6928;SDS011;3504;52.616;13.238;2023-11-19T22:26:12;19.43;;;7.30;;
6928;SDS011;3504;52.616;13.238;2023-11-19T22:31:12;20.23;;;7.03;;
6928;SDS011;3504;52.616;13.238;2023-11-19T22:36:13;24.67;;;7.17;;
6928;SDS011;3504;52.616;13.238;2023-11-19T22:41:13;22.20;;;7.67;;
6928;SDS011;3504;52.616;13.238;2023-11-19T22:46:14;18.20;;;7.00;;
6928;SDS011;3504;52.616;13.238;2023-11-19T22:51:14;23.63;;;7.40;;
6928;SDS011;3504;52.616;13.238;2023-11-19T22:56:15;16.63;;;7.30;;
6928;SDS011;3504;52.616;13.238;2023-11-19T23:01:16;25.27;;;7.97;;
6928;SDS011;3504;52.616;13.238;2023-11-19T23:06:18;24.80;;;7.73;;
6928;SDS011;3504;52.616;13.238;2023-11-19T23:11:19;21.43;;;8.73;;
6928;SDS011;3504;52.616;13.238;2023-11-19T23:16:19;28.97;;;9.57;;
6928;SDS011;3504;52.616;13.238;2023-11-19T23:21:23;22.93;;;8.43;;
6928;SDS011;3504;52.616;13.238;2023-11-19T23:26:23;18.83;;;7.33;;
6928;SDS011;3504;52.616;13.238;2023-11-19T23:31:24;20.50;;;7.10;;
6928;SDS011;3504;52.616;13.238;2023-11-19T23:36:24;26.77;;;7.33;;
6928;SDS011;3504;52.616;13.238;2023-11-19T23:41:25;21.10;;;7.20;;
6928;SDS011;3504;52.616;13.238;2023-11-19T23:46:25;17.00;;;7.23;;
6928;SDS011;3504;52.616;13.238;2023-11-19T23:51:26;21.83;;;7.70;;
6928;SDS011;3504;52.616;13.238;2023-11-19T23:56:27;20.83;;;7.43;;
